Time;durP1;ratioP1;P1;durP2;ratioP2;P2;SDS_P1;SDS_P2;PMS_P1;PMS_P2;Temp;Humidity;BMP_temperature;BMP_pressure;BME280_temperature;BME280_humidity;BME280_pressure;Samples;Min_cycle;Max_cycle;Signal;HPM_P1;HPM_P2
2022/01/29 00:01:52;;;;;;;2.30;1.70;;;;;;;;;;5098120;28;20192;-63
2022/01/29 00:04:19;;;;;;;2.45;1.70;;;;;;;;;;5097389;28;20229;-63
2022/01/29 00:06:48;;;;;;;2.67;1.85;;;;;;;;;;5104370;28;20221;-63
2022/01/29 00:09:16;;;;;;;2.15;1.60;;;;;;;;;;5100936;28;20211;-63
2022/01/29 00:11:44;;;;;;;2.13;1.58;;;;;;;;;;5096653;28;20219;-62
2022/01/29 00:14:11;;;;;;;2.97;1.80;;;;;;;;;;5096927;28;20203;-63
2022/01/29 00:16:40;;;;;;;2.50;1.63;;;;;;;;;;5097524;28;20196;-63
2022/01/29 00:19:08;;;;;;;3.10;1.67;;;;;;;;;;5098425;28;20196;-63
2022/01/29 00:21:35;;;;;;;1.52;1.40;;;;;;;;;;5110004;28;20226;-63
2022/01/29 00:24:04;;;;;;;1.40;1.25;;;;;;;;;;5116930;28;20490;-63
2022/01/29 00:26:32;;;;;;;1.98;1.17;;;;;;;;;;5112346;28;20583;-63
2022/01/29 00:29:04;;;;;;;3.22;1.70;;;;;;;;;;5096767;28;20200;-63
2022/01/29 00:31:32;;;;;;;2.45;1.67;;;;;;;;;;5096789;28;20607;-63
2022/01/29 00:33:59;;;;;;;2.20;1.50;;;;;;;;;;5096629;28;20204;-63
2022/01/29 00:36:27;;;;;;;2.47;1.80;;;;;;;;;;5097972;28;20195;-63
2022/01/29 00:38:54;;;;;;;1.83;1.45;;;;;;;;;;5096854;28;20226;-63
2022/01/29 00:41:23;;;;;;;2.47;1.50;;;;;;;;;;5097267;28;20207;-63
2022/01/29 00:43:50;;;;;;;1.92;1.45;;;;;;;;;;5097159;28;20206;-63
2022/01/29 00:46:17;;;;;;;2.03;1.45;;;;;;;;;;5098223;28;20214;-63
2022/01/29 00:48:45;;;;;;;2.00;1.38;;;;;;;;;;5115789;28;20273;-63
2022/01/29 00:51:12;;;;;;;2.33;1.50;;;;;;;;;;5108607;28;20533;-63
2022/01/29 00:53:40;;;;;;;1.77;1.38;;;;;;;;;;5103429;28;20200;-63
2022/01/29 00:56:09;;;;;;;1.92;1.35;;;;;;;;;;5096761;28;20207;-62
2022/01/29 00:58:38;;;;;;;2.08;1.35;;;;;;;;;;5096978;28;20321;-63
2022/01/29 01:01:05;;;;;;;3.10;1.58;;;;;;;;;;5096665;28;20192;-63
2022/01/29 01:03:33;;;;;;;2.38;1.30;;;;;;;;;;5112057;28;20198;-63
2022/01/29 01:06:01;;;;;;;1.52;1.40;;;;;;;;;;5117041;28;20194;-63
2022/01/29 01:08:28;;;;;;;1.33;1.20;;;;;;;;;;5107982;28;20254;-63
2022/01/29 01:10:55;;;;;;;1.73;1.30;;;;;;;;;;5096837;28;20235;-63
2022/01/29 01:13:23;;;;;;;1.50;1.40;;;;;;;;;;5096711;28;20208;-63
2022/01/29 01:15:52;;;;;;;1.95;1.27;;;;;;;;;;5096537;28;20309;-63
2022/01/29 01:18:20;;;;;;;1.85;1.40;;;;;;;;;;5114897;28;20578;-63
2022/01/29 01:20:47;;;;;;;1.90;1.50;;;;;;;;;;5109332;28;20195;-63
2022/01/29 01:23:14;;;;;;;1.95;1.42;;;;;;;;;;5096777;28;20199;-63
2022/01/29 01:25:42;;;;;;;2.45;1.40;;;;;;;;;;5096882;28;20328;-63
2022/01/29 01:28:09;;;;;;;1.90;1.40;;;;;;;;;;5097620;28;20605;-63
2022/01/29 01:30:37;;;;;;;1.63;1.20;;;;;;;;;;5096452;28;20219;-63
2022/01/29 01:33:06;;;;;;;1.45;1.35;;;;;;;;;;5102552;28;20195;-63
2022/01/29 01:35:38;;;;;;;2.22;1.30;;;;;;;;;;5116151;28;20278;-62
2022/01/29 01:38:12;;;;;;;1.80;1.30;;;;;;;;;;5105645;28;20255;-63
2022/01/29 01:40:42;;;;;;;3.65;1.73;;;;;;;;;;5117128;28;20617;-63
2022/01/29 01:43:10;;;;;;;2.35;1.35;;;;;;;;;;5096961;28;20210;-63
2022/01/29 01:45:37;;;;;;;2.72;1.73;;;;;;;;;;5096504;28;20222;-63
2022/01/29 01:48:06;;;;;;;1.40;1.25;;;;;;;;;;5097425;28;20200;-63
2022/01/29 01:50:35;;;;;;;1.88;1.30;;;;;;;;;;5096312;28;20200;-63
2022/01/29 01:53:02;;;;;;;2.63;1.50;;;;;;;;;;5088133;28;20200;-63
2022/01/29 01:55:29;;;;;;;2.38;1.58;;;;;;;;;;5096361;28;20302;-63
2022/01/29 01:57:57;;;;;;;1.95;1.40;;;;;;;;;;5096140;28;20215;-62
2022/01/29 02:00:25;;;;;;;1.48;1.25;;;;;;;;;;5096517;28;20578;-63
2022/01/29 02:02:52;;;;;;;1.95;1.30;;;;;;;;;;5113770;28;20539;-63
2022/01/29 02:05:21;;;;;;;1.38;1.20;;;;;;;;;;5116821;28;20203;-63
2022/01/29 02:07:48;;;;;;;2.00;1.50;;;;;;;;;;5101288;28;20233;-63
2022/01/29 02:10:18;;;;;;;2.47;1.50;;;;;;;;;;5116711;28;20226;-63
2022/01/29 02:12:46;;;;;;;1.30;1.08;;;;;;;;;;5106563;28;20483;-63
2022/01/29 02:15:14;;;;;;;2.90;1.83;;;;;;;;;;5097721;28;20211;-62
2022/01/29 02:17:42;;;;;;;2.15;1.40;;;;;;;;;;5100923;28;20195;-63
2022/01/29 02:20:09;;;;;;;2.17;1.30;;;;;;;;;;5099943;28;20204;-63
2022/01/29 02:22:40;;;;;;;2.38;1.40;;;;;;;;;;5099314;28;20196;-63
2022/01/29 02:25:07;;;;;;;1.70;1.60;;;;;;;;;;5118451;28;20199;-63
2022/01/29 02:27:35;;;;;;;2.92;1.55;;;;;;;;;;5104357;28;20610;-63
2022/01/29 02:30:02;;;;;;;2.75;1.58;;;;;;;;;;5100648;28;20222;-63
2022/01/29 02:32:29;;;;;;;1.70;1.50;;;;;;;;;;5101657;28;20219;-63
2022/01/29 02:34:57;;;;;;;1.67;1.20;;;;;;;;;;5119636;28;20476;-63
2022/01/29 02:37:24;;;;;;;1.67;1.50;;;;;;;;;;5106260;27;20211;-63
2022/01/29 02:39:53;;;;;;;1.42;1.20;;;;;;;;;;5119359;28;20594;-63
2022/01/29 02:42:21;;;;;;;2.05;1.63;;;;;;;;;;5106803;28;20261;-63
2022/01/29 02:44:48;;;;;;;2.08;1.50;;;;;;;;;;5100099;28;20602;-63
2022/01/29 02:47:27;;;;;;;1.92;1.55;;;;;;;;;;5100233;28;20211;-63
2022/01/29 02:49:54;;;;;;;2.38;1.70;;;;;;;;;;5114173;28;20190;-63
2022/01/29 02:52:22;;;;;;;1.95;1.60;;;;;;;;;;5106395;28;20808;-63
2022/01/29 02:54:49;;;;;;;1.98;1.70;;;;;;;;;;5115523;28;20222;-63
2022/01/29 02:57:19;;;;;;;2.10;1.70;;;;;;;;;;5108692;28;20203;-63
2022/01/29 02:59:46;;;;;;;2.30;1.52;;;;;;;;;;5099876;28;20593;-63
2022/01/29 03:02:13;;;;;;;2.00;1.70;;;;;;;;;;5099607;28;20196;-63
2022/01/29 03:04:41;;;;;;;2.28;1.70;;;;;;;;;;5099511;28;20204;-63
2022/01/29 03:07:08;;;;;;;2.58;1.73;;;;;;;;;;5099406;28;20293;-62
2022/01/29 03:09:35;;;;;;;1.92;1.73;;;;;;;;;;5116118;28;20199;-63
2022/01/29 03:12:03;;;;;;;2.50;1.77;;;;;;;;;;5119154;28;20222;-63
2022/01/29 03:14:32;;;;;;;1.98;1.77;;;;;;;;;;5119357;28;20609;-63
2022/01/29 03:16:59;;;;;;;1.60;1.45;;;;;;;;;;5110148;28;20519;-62
2022/01/29 03:19:27;;;;;;;2.00;1.60;;;;;;;;;;5099440;28;20453;-63
2022/01/29 03:21:54;;;;;;;2.22;1.77;;;;;;;;;;5099399;28;20196;-63
2022/01/29 03:24:21;;;;;;;1.83;1.50;;;;;;;;;;5099072;28;20199;-63
2022/01/29 03:26:48;;;;;;;2.08;1.67;;;;;;;;;;5114145;28;20202;-62
2022/01/29 03:29:16;;;;;;;1.90;1.70;;;;;;;;;;5117607;28;20195;-62
2022/01/29 03:31:45;;;;;;;2.55;1.70;;;;;;;;;;5118804;28;20225;-62
2022/01/29 03:34:12;;;;;;;2.10;1.90;;;;;;;;;;5119632;28;20210;-63
2022/01/29 03:36:40;;;;;;;2.00;1.80;;;;;;;;;;5107657;28;20222;-63
2022/01/29 03:39:07;;;;;;;2.08;1.88;;;;;;;;;;5110805;28;20199;-63
2022/01/29 03:41:34;;;;;;;2.20;1.95;;;;;;;;;;5116585;28;20191;-63
2022/01/29 03:44:05;;;;;;;2.45;1.90;;;;;;;;;;5119247;28;20202;-63
2022/01/29 03:46:33;;;;;;;2.10;1.92;;;;;;;;;;5116889;28;20665;-63
2022/01/29 03:49:02;;;;;;;2.20;2.00;;;;;;;;;;5119359;28;20537;-63
2022/01/29 03:51:29;;;;;;;2.17;1.98;;;;;;;;;;5118405;28;20226;-63
2022/01/29 03:53:56;;;;;;;2.40;1.95;;;;;;;;;;5118137;28;20614;-63
2022/01/29 03:56:24;;;;;;;2.72;2.10;;;;;;;;;;5107803;28;20200;-62
2022/01/29 03:58:51;;;;;;;2.40;2.00;;;;;;;;;;5098317;28;20480;-63
2022/01/29 04:01:18;;;;;;;2.33;2.13;;;;;;;;;;5097768;28;20200;-63
2022/01/29 04:03:46;;;;;;;2.50;2.30;;;;;;;;;;5098007;28;20212;-63
2022/01/29 04:06:15;;;;;;;2.03;1.83;;;;;;;;;;5098893;28;20203;-63
2022/01/29 04:08:43;;;;;;;2.20;2.00;;;;;;;;;;5106634;28;20309;-63
2022/01/29 04:11:13;;;;;;;2.42;1.92;;;;;;;;;;5117755;28;20195;-63
2022/01/29 04:13:43;;;;;;;2.00;1.83;;;;;;;;;;5117060;28;20264;-63
2022/01/29 04:16:10;;;;;;;2.45;2.25;;;;;;;;;;5116290;27;20229;-63
2022/01/29 04:18:37;;;;;;;2.60;2.20;;;;;;;;;;5118293;28;20203;-63
2022/01/29 04:21:05;;;;;;;2.38;2.17;;;;;;;;;;5118001;28;20265;-62
2022/01/29 04:23:34;;;;;;;2.42;2.15;;;;;;;;;;5112191;28;20203;-62
2022/01/29 04:26:02;;;;;;;2.33;2.13;;;;;;;;;;5097739;28;20210;-63
2022/01/29 04:28:34;;;;;;;2.50;2.20;;;;;;;;;;5106967;28;20198;-63
2022/01/29 04:31:06;;;;;;;2.47;2.28;;;;;;;;;;5097346;28;20246;-63
2022/01/29 04:33:33;;;;;;;2.72;2.17;;;;;;;;;;5099160;28;20306;-63
2022/01/29 04:36:02;;;;;;;2.35;2.15;;;;;;;;;;5114153;28;20211;-62
2022/01/29 04:38:30;;;;;;;3.22;2.47;;;;;;;;;;5103713;28;20195;-63
2022/01/29 04:41:03;;;;;;;2.75;2.55;;;;;;;;;;5116922;28;20199;-62
2022/01/29 04:43:30;;;;;;;2.30;2.10;;;;;;;;;;5117525;28;20567;-63
2022/01/29 04:45:58;;;;;;;2.65;2.15;;;;;;;;;;5116009;28;20203;-62
2022/01/29 04:48:25;;;;;;;2.95;2.50;;;;;;;;;;5117353;28;20210;-62
2022/01/29 04:50:52;;;;;;;2.28;2.08;;;;;;;;;;5117491;28;20536;-63
2022/01/29 04:53:20;;;;;;;2.60;2.40;;;;;;;;;;5117118;28;20222;-62
2022/01/29 04:55:47;;;;;;;2.47;2.28;;;;;;;;;;5117302;28;20199;-62
2022/01/29 04:58:16;;;;;;;2.63;2.35;;;;;;;;;;5106193;28;20622;-63
2022/01/29 05:00:44;;;;;;;2.47;2.28;;;;;;;;;;5099023;28;20741;-63
2022/01/29 05:03:12;;;;;;;2.53;2.33;;;;;;;;;;5089227;28;20201;-63
2022/01/29 05:05:41;;;;;;;2.80;2.47;;;;;;;;;;5087741;28;20256;-63
2022/01/29 05:08:08;;;;;;;2.35;2.15;;;;;;;;;;5091042;28;20227;-63
2022/01/29 05:10:36;;;;;;;3.00;2.40;;;;;;;;;;5097116;28;20490;-62
2022/01/29 05:13:06;;;;;;;2.80;2.60;;;;;;;;;;5076195;28;20224;-63
2022/01/29 05:15:40;;;;;;;2.75;2.55;;;;;;;;;;5076370;28;20298;-63
2022/01/29 05:29:08;;;;;;;2.63;2.42;;;;;;;;;;5114856;28;20198;-63
2022/01/29 05:31:37;;;;;;;2.50;2.30;;;;;;;;;;5100777;28;20200;-63
2022/01/29 05:34:05;;;;;;;2.75;2.50;;;;;;;;;;5097450;28;20571;-62
2022/01/29 05:36:32;;;;;;;2.70;2.50;;;;;;;;;;5100325;28;20571;-62
2022/01/29 05:38:59;;;;;;;3.00;2.50;;;;;;;;;;5106575;28;20208;-62
2022/01/29 05:41:28;;;;;;;2.95;2.65;;;;;;;;;;5097239;28;20199;-62
2022/01/29 05:43:55;;;;;;;3.20;2.90;;;;;;;;;;5097174;28;20196;-63
2022/01/29 05:46:22;;;;;;;2.63;2.42;;;;;;;;;;5097840;28;20676;-63
2022/01/29 05:48:51;;;;;;;2.78;2.58;;;;;;;;;;5097040;28;20211;-62
2022/01/29 05:51:19;;;;;;;2.67;2.42;;;;;;;;;;5099901;28;20196;-63
2022/01/29 05:53:46;;;;;;;2.95;2.70;;;;;;;;;;5101286;28;20229;-63
2022/01/29 05:56:13;;;;;;;3.03;2.70;;;;;;;;;;5100788;28;20195;-63
2022/01/29 05:58:41;;;;;;;2.80;2.20;;;;;;;;;;5100942;28;20329;-63
2022/01/29 06:01:09;;;;;;;2.72;2.50;;;;;;;;;;5100445;28;20210;-63
2022/01/29 06:03:36;;;;;;;3.05;2.45;;;;;;;;;;5116486;28;20191;-63
2022/01/29 06:06:05;;;;;;;2.65;2.45;;;;;;;;;;5121143;27;20268;-63
2022/01/29 06:08:32;;;;;;;2.63;2.42;;;;;;;;;;5113864;28;20228;-63
2022/01/29 06:11:01;;;;;;;2.72;2.53;;;;;;;;;;5100893;28;20204;-62
2022/01/29 06:13:28;;;;;;;2.72;2.47;;;;;;;;;;5100195;28;20227;-63
2022/01/29 06:15:56;;;;;;;2.70;2.50;;;;;;;;;;5108751;28;20467;-63
2022/01/29 06:18:24;;;;;;;2.80;2.60;;;;;;;;;;5118436;28;20286;-63
2022/01/29 06:20:52;;;;;;;3.13;2.70;;;;;;;;;;5109524;28;20203;-63
2022/01/29 06:23:28;;;;;;;2.78;2.47;;;;;;;;;;5100052;28;20853;-63
2022/01/29 06:25:55;;;;;;;2.63;2.42;;;;;;;;;;5100478;28;20203;-63
2022/01/29 06:28:23;;;;;;;2.60;2.40;;;;;;;;;;5100551;28;20613;-63
2022/01/29 06:30:50;;;;;;;2.83;2.58;;;;;;;;;;5108598;28;20203;-63
2022/01/29 06:33:18;;;;;;;2.85;2.65;;;;;;;;;;5111737;28;20227;-63
2022/01/29 06:35:45;;;;;;;2.58;2.38;;;;;;;;;;5101422;28;20212;-63
2022/01/29 06:38:13;;;;;;;3.00;2.70;;;;;;;;;;5116402;28;20204;-64
2022/01/29 06:40:42;;;;;;;3.25;2.90;;;;;;;;;;5099913;28;20226;-63
2022/01/29 06:43:10;;;;;;;2.80;2.60;;;;;;;;;;5099904;28;20200;-63
2022/01/29 06:45:38;;;;;;;2.90;2.70;;;;;;;;;;5099773;28;20204;-63
2022/01/29 06:48:06;;;;;;;2.67;2.47;;;;;;;;;;5100990;28;20270;-63
2022/01/29 06:50:34;;;;;;;2.80;2.55;;;;;;;;;;5100121;28;20203;-63
2022/01/29 06:53:01;;;;;;;2.85;2.50;;;;;;;;;;5118456;28;20479;-63
2022/01/29 06:55:29;;;;;;;2.33;2.13;;;;;;;;;;5119765;28;20203;-63
2022/01/29 06:57:58;;;;;;;3.63;2.72;;;;;;;;;;5119482;28;20198;-63
2022/01/29 07:00:26;;;;;;;2.78;2.58;;;;;;;;;;5119847;28;20214;-63
2022/01/29 07:02:53;;;;;;;2.70;2.45;;;;;;;;;;5119007;28;20187;-63
2022/01/29 07:05:20;;;;;;;2.53;2.30;;;;;;;;;;5099548;28;20200;-63
2022/01/29 07:07:48;;;;;;;2.45;2.25;;;;;;;;;;5101581;28;20227;-63
2022/01/29 07:10:16;;;;;;;2.65;2.45;;;;;;;;;;5119942;28;20211;-63
2022/01/29 07:12:43;;;;;;;2.92;2.50;;;;;;;;;;5119619;28;20622;-63
2022/01/29 07:15:12;;;;;;;3.05;2.60;;;;;;;;;;5119575;28;20199;-64
2022/01/29 07:17:40;;;;;;;3.00;2.70;;;;;;;;;;5117336;28;20210;-63
2022/01/29 07:20:08;;;;;;;2.85;2.65;;;;;;;;;;5119407;28;20207;-63
2022/01/29 07:22:35;;;;;;;3.00;2.70;;;;;;;;;;5118289;28;20195;-63
2022/01/29 07:25:03;;;;;;;2.90;2.70;;;;;;;;;;5119440;28;20495;-63
2022/01/29 07:27:30;;;;;;;2.85;2.65;;;;;;;;;;5118928;28;20217;-63
2022/01/29 07:29:57;;;;;;;2.60;2.40;;;;;;;;;;5118730;28;20206;-63
2022/01/29 07:32:26;;;;;;;2.40;2.20;;;;;;;;;;5102936;28;20192;-63
2022/01/29 07:34:53;;;;;;;2.30;2.10;;;;;;;;;;5105251;28;20199;-63
2022/01/29 07:37:21;;;;;;;2.55;2.35;;;;;;;;;;5116701;28;20582;-63
2022/01/29 07:39:48;;;;;;;2.60;2.40;;;;;;;;;;5106293;28;20203;-63
2022/01/29 07:42:16;;;;;;;2.63;2.30;;;;;;;;;;5108885;28;20294;-63
2022/01/29 07:44:43;;;;;;;2.42;2.22;;;;;;;;;;5098039;28;20216;-62
2022/01/29 07:47:10;;;;;;;2.60;2.40;;;;;;;;;;5099060;28;20196;-63
2022/01/29 07:49:39;;;;;;;2.70;2.40;;;;;;;;;;5098421;28;20212;-63
2022/01/29 07:52:07;;;;;;;2.45;2.25;;;;;;;;;;5109105;28;20203;-63
2022/01/29 07:54:34;;;;;;;2.45;2.25;;;;;;;;;;5117372;28;20641;-63
2022/01/29 07:57:01;;;;;;;2.28;2.08;;;;;;;;;;5116955;27;20207;-63
2022/01/29 07:59:29;;;;;;;2.38;2.17;;;;;;;;;;5117729;28;20211;-62
2022/01/29 08:01:57;;;;;;;2.53;2.17;;;;;;;;;;5117597;28;20256;-63
2022/01/29 08:04:24;;;;;;;2.35;2.15;;;;;;;;;;5117571;28;20191;-62
2022/01/29 08:06:53;;;;;;;2.47;2.28;;;;;;;;;;5099439;28;20200;-63
2022/01/29 08:09:20;;;;;;;2.75;2.47;;;;;;;;;;5111001;28;20198;-63
2022/01/29 08:11:48;;;;;;;1.90;1.80;;;;;;;;;;5117652;28;20206;-63
2022/01/29 08:14:15;;;;;;;2.47;2.28;;;;;;;;;;5117096;28;20219;-64
2022/01/29 08:16:43;;;;;;;2.08;1.88;;;;;;;;;;5106482;28;20211;-62
2022/01/29 08:19:10;;;;;;;2.30;2.10;;;;;;;;;;5100517;28;20514;-62
2022/01/29 08:21:38;;;;;;;2.10;1.90;;;;;;;;;;5117131;28;20210;-63
2022/01/29 08:24:08;;;;;;;2.30;2.10;;;;;;;;;;5117308;28;20222;-63
2022/01/29 08:26:35;;;;;;;2.20;2.00;;;;;;;;;;5108769;28;20196;-62
2022/01/29 08:29:02;;;;;;;2.28;2.08;;;;;;;;;;5097389;28;20210;-62
2022/01/29 08:31:30;;;;;;;2.20;2.00;;;;;;;;;;5102344;28;20206;-63
2022/01/29 08:33:57;;;;;;;2.00;1.90;;;;;;;;;;5116015;28;20506;-63
2022/01/29 08:36:25;;;;;;;2.20;2.00;;;;;;;;;;5077970;28;20298;-63
2022/01/29 08:38:52;;;;;;;2.13;1.90;;;;;;;;;;5108565;28;20207;-63
2022/01/29 08:41:21;;;;;;;2.72;1.85;;;;;;;;;;5103745;28;20195;-63
2022/01/29 08:43:49;;;;;;;2.30;2.10;;;;;;;;;;5117294;28;20199;-63
2022/01/29 08:46:16;;;;;;;2.45;2.22;;;;;;;;;;5114989;28;20212;-62
2022/01/29 08:48:43;;;;;;;1.98;1.85;;;;;;;;;;5118071;28;20590;-63
2022/01/29 08:51:10;;;;;;;2.30;2.10;;;;;;;;;;5108686;28;20200;-63
2022/01/29 08:53:38;;;;;;;2.30;1.80;;;;;;;;;;5108105;28;20225;-62
2022/01/29 08:56:06;;;;;;;2.10;1.90;;;;;;;;;;5116518;28;20199;-63
2022/01/29 08:58:35;;;;;;;1.90;1.60;;;;;;;;;;5116109;28;20203;-62
2022/01/29 09:01:07;;;;;;;2.20;2.00;;;;;;;;;;5115877;28;20210;-62
2022/01/29 09:03:34;;;;;;;2.00;1.83;;;;;;;;;;5116303;28;20593;-63
2022/01/29 09:06:02;;;;;;;2.55;1.85;;;;;;;;;;5116439;28;20195;-63
2022/01/29 09:08:29;;;;;;;2.25;2.00;;;;;;;;;;5109392;28;20242;-63
2022/01/29 09:10:58;;;;;;;2.35;2.15;;;;;;;;;;5095695;28;20199;-62
2022/01/29 09:13:25;;;;;;;2.03;1.92;;;;;;;;;;5095837;28;20223;-62
2022/01/29 09:15:54;;;;;;;2.35;2.15;;;;;;;;;;5098036;28;20581;-63
2022/01/29 09:18:21;;;;;;;2.25;2.05;;;;;;;;;;5095799;28;20559;-62
2022/01/29 09:20:48;;;;;;;2.95;2.45;;;;;;;;;;5095974;28;20214;-62
2022/01/29 09:23:16;;;;;;;2.45;1.90;;;;;;;;;;5095973;28;20474;-63
2022/01/29 09:25:44;;;;;;;2.00;1.80;;;;;;;;;;5100442;28;20196;-64
2022/01/29 09:28:13;;;;;;;2.10;1.90;;;;;;;;;;5100489;28;20206;-63
2022/01/29 09:30:40;;;;;;;2.20;2.00;;;;;;;;;;5100275;28;20203;-63
2022/01/29 09:33:09;;;;;;;2.30;2.10;;;;;;;;;;5099974;28;20325;-63
2022/01/29 09:35:38;;;;;;;2.15;1.95;;;;;;;;;;5112651;28;20199;-62
2022/01/29 09:38:05;;;;;;;2.40;2.20;;;;;;;;;;5118667;28;20202;-63
2022/01/29 09:40:33;;;;;;;1.95;1.75;;;;;;;;;;5104683;28;20206;-63
2022/01/29 09:43:02;;;;;;;2.17;1.98;;;;;;;;;;5119893;28;20574;-63
2022/01/29 09:45:29;;;;;;;2.17;1.98;;;;;;;;;;5119916;28;20561;-63
2022/01/29 09:48:01;;;;;;;2.22;2.03;;;;;;;;;;5116426;28;20198;-62
2022/01/29 09:50:31;;;;;;;1.90;1.80;;;;;;;;;;5119590;28;20211;-63
2022/01/29 09:52:59;;;;;;;2.20;2.10;;;;;;;;;;5120072;27;20199;-62
2022/01/29 09:55:27;;;;;;;2.42;2.20;;;;;;;;;;5119688;28;20214;-63
2022/01/29 09:57:54;;;;;;;2.33;2.03;;;;;;;;;;5079094;28;20200;-62
2022/01/29 10:00:22;;;;;;;2.85;1.80;;;;;;;;;;5091409;28;20210;-62
2022/01/29 10:03:04;;;;;;;2.53;1.98;;;;;;;;;;5098757;28;20207;-62
2022/01/29 10:05:37;;;;;;;3.15;2.05;;;;;;;;;;5079387;28;20218;-62
2022/01/29 10:08:05;;;;;;;2.42;1.88;;;;;;;;;;5086475;28;20238;-62
2022/01/29 10:10:38;;;;;;;2.75;1.85;;;;;;;;;;5119343;28;20211;-62
2022/01/29 10:13:20;;;;;;;3.05;1.92;;;;;;;;;;5114857;28;20200;-62
2022/01/29 10:15:48;;;;;;;2.10;1.70;;;;;;;;;;5117522;28;20207;-62
2022/01/29 10:18:21;;;;;;;2.30;1.88;;;;;;;;;;5108252;28;20199;-62
2022/01/29 10:20:50;;;;;;;2.15;1.73;;;;;;;;;;5098616;28;20195;-63
2022/01/29 10:23:17;;;;;;;2.00;1.77;;;;;;;;;;5101077;28;20508;-63
2022/01/29 10:25:49;;;;;;;2.15;1.75;;;;;;;;;;5118421;28;20617;-63
2022/01/29 10:28:17;;;;;;;3.13;1.70;;;;;;;;;;5119740;28;20611;-63
2022/01/29 10:30:58;;;;;;;3.70;1.90;;;;;;;;;;5119123;28;20207;-62
2022/01/29 10:33:28;;;;;;;2.22;1.60;;;;;;;;;;5118155;28;20202;-63
2022/01/29 10:35:58;;;;;;;3.78;1.70;;;;;;;;;;5110818;28;20211;-63
2022/01/29 10:38:26;;;;;;;2.65;1.77;;;;;;;;;;5105003;28;20195;-63
2022/01/29 10:41:14;;;;;;;2.05;1.77;;;;;;;;;;5119407;28;20195;-63
2022/01/29 10:44:08;;;;;;;2.53;1.67;;;;;;;;;;5118759;28;20191;-63
2022/01/29 10:46:36;;;;;;;1.70;1.60;;;;;;;;;;5105468;28;20196;-63
2022/01/29 10:49:05;;;;;;;1.80;1.70;;;;;;;;;;5118552;28;20210;-63
2022/01/29 10:51:34;;;;;;;1.77;1.67;;;;;;;;;;5118173;28;20191;-62
2022/01/29 10:54:18;;;;;;;2.03;1.60;;;;;;;;;;5117886;28;20234;-63
2022/01/29 10:56:52;;;;;;;3.05;1.80;;;;;;;;;;5111287;28;20203;-62
2022/01/29 10:59:20;;;;;;;1.90;1.58;;;;;;;;;;5100198;28;20258;-62
2022/01/29 11:01:51;;;;;;;1.90;1.40;;;;;;;;;;5108088;28;20295;-62
2022/01/29 11:04:18;;;;;;;2.00;1.52;;;;;;;;;;5117043;27;20200;-62
2022/01/29 11:06:48;;;;;;;1.40;1.30;;;;;;;;;;5099911;28;20196;-62
2022/01/29 11:09:16;;;;;;;1.90;1.20;;;;;;;;;;5109663;28;20283;-62
2022/01/29 11:11:45;;;;;;;1.80;1.50;;;;;;;;;;5118205;28;20210;-62
2022/01/29 11:14:13;;;;;;;1.88;1.45;;;;;;;;;;5106234;28;20220;-62
2022/01/29 11:16:41;;;;;;;1.65;1.50;;;;;;;;;;5108295;28;20227;-63
2022/01/29 11:19:09;;;;;;;1.52;1.33;;;;;;;;;;5117046;28;20203;-62
2022/01/29 11:21:36;;;;;;;1.80;1.48;;;;;;;;;;5107221;28;20200;-62
2022/01/29 11:24:06;;;;;;;1.55;1.40;;;;;;;;;;5107419;28;20206;-62
2022/01/29 11:26:33;;;;;;;6.38;4.47;;;;;;;;;;5110061;28;20666;-62
2022/01/29 11:29:31;;;;;;;6.43;4.47;;;;;;;;;;5116269;28;20601;-63
2022/01/29 11:32:32;;;;;;;5.30;3.85;;;;;;;;;;5053369;28;20200;-62
2022/01/29 11:35:07;;;;;;;9.18;7.72;;;;;;;;;;5035295;28;20303;-62
2022/01/29 11:37:38;;;;;;;17.20;15.70;;;;;;;;;;5048084;28;20684;-62
2022/01/29 11:40:15;;;;;;;16.63;15.23;;;;;;;;;;5070687;28;20214;-62
2022/01/29 11:43:01;;;;;;;13.85;12.75;;;;;;;;;;5094950;28;20206;-62
2022/01/29 11:45:50;;;;;;;13.57;12.38;;;;;;;;;;5102037;28;20203;-62
2022/01/29 11:48:55;;;;;;;12.20;11.10;;;;;;;;;;5097915;28;20272;-62
2022/01/29 11:51:42;;;;;;;11.80;10.73;;;;;;;;;;5083520;28;20199;-63
2022/01/29 11:54:09;;;;;;;11.43;10.30;;;;;;;;;;5106299;28;20219;-62
2022/01/29 11:56:40;;;;;;;9.88;8.98;;;;;;;;;;5113005;28;20224;-63
2022/01/29 11:59:27;;;;;;;9.98;9.15;;;;;;;;;;5076510;28;20204;-62
2022/01/29 12:01:55;;;;;;;8.82;8.05;;;;;;;;;;5086717;28;20257;-63
2022/01/29 12:04:23;;;;;;;8.73;7.93;;;;;;;;;;5096768;28;20487;-62
2022/01/29 12:07:10;;;;;;;8.20;7.28;;;;;;;;;;5097020;28;20733;-62
2022/01/29 12:09:44;;;;;;;7.97;7.18;;;;;;;;;;5097324;28;20393;-62
2022/01/29 12:12:20;;;;;;;7.20;6.60;;;;;;;;;;5095962;28;20216;-63
2022/01/29 12:14:48;;;;;;;7.22;6.57;;;;;;;;;;5095640;28;20231;-63
2022/01/29 12:17:34;;;;;;;6.28;5.78;;;;;;;;;;5108733;28;20203;-62
2022/01/29 12:20:03;;;;;;;6.47;5.88;;;;;;;;;;5093612;28;20366;-63
2022/01/29 12:22:33;;;;;;;5.78;5.28;;;;;;;;;;5113628;28;20255;-62
2022/01/29 12:25:01;;;;;;;5.72;5.22;;;;;;;;;;5098521;28;20196;-63
2022/01/29 12:27:42;;;;;;;5.88;5.38;;;;;;;;;;5113586;28;20245;-64
2022/01/29 12:30:10;;;;;;;6.00;4.80;;;;;;;;;;5116351;28;20202;-63
2022/01/29 12:32:37;;;;;;;5.13;4.72;;;;;;;;;;5095874;28;20192;-63
2022/01/29 12:35:05;;;;;;;5.50;5.00;;;;;;;;;;5103845;28;20219;-63
2022/01/29 12:37:33;;;;;;;4.53;4.22;;;;;;;;;;5108408;28;20306;-62
2022/01/29 12:40:17;;;;;;;4.50;4.20;;;;;;;;;;5113648;28;20199;-62
2022/01/29 12:42:55;;;;;;;4.45;4.00;;;;;;;;;;5096923;28;20196;-63
2022/01/29 12:45:23;;;;;;;4.45;4.05;;;;;;;;;;5095387;28;20200;-62
2022/01/29 12:47:50;;;;;;;4.10;3.80;;;;;;;;;;5098646;28;20199;-63
2022/01/29 12:50:21;;;;;;;4.70;3.70;;;;;;;;;;5108089;28;20276;-63
2022/01/29 12:52:49;;;;;;;4.63;3.60;;;;;;;;;;5115374;28;20191;-62
2022/01/29 12:55:16;;;;;;;3.75;3.45;;;;;;;;;;5114776;28;20299;-62
2022/01/29 12:57:46;;;;;;;3.30;3.00;;;;;;;;;;5114803;28;20206;-63
2022/01/29 13:00:15;;;;;;;3.42;3.13;;;;;;;;;;5115576;28;20683;-63
2022/01/29 13:02:42;;;;;;;3.25;2.97;;;;;;;;;;5094943;28;20203;-63
2022/01/29 13:05:11;;;;;;;3.10;2.88;;;;;;;;;;5094583;28;20219;-63
2022/01/29 13:07:40;;;;;;;2.85;2.65;;;;;;;;;;5094225;28;20250;-63
2022/01/29 13:10:09;;;;;;;2.78;2.58;;;;;;;;;;5094829;28;20199;-62
2022/01/29 13:12:40;;;;;;;2.72;2.53;;;;;;;;;;5105217;28;20195;-62
2022/01/29 13:15:10;;;;;;;2.75;2.55;;;;;;;;;;5097039;28;20230;-62
2022/01/29 13:17:42;;;;;;;2.67;2.47;;;;;;;;;;5109197;28;20195;-63
2022/01/29 13:20:10;;;;;;;2.75;2.55;;;;;;;;;;5107029;28;20586;-62
2022/01/29 13:22:40;;;;;;;15.95;13.63;;;;;;;;;;5094605;28;20207;-62
2022/01/29 13:25:08;;;;;;;18.35;14.25;;;;;;;;;;5093950;28;20265;-63
2022/01/29 13:27:37;;;;;;;13.25;11.82;;;;;;;;;;5093670;28;20199;-63
2022/01/29 13:30:18;;;;;;;14.15;10.82;;;;;;;;;;5092961;28;20199;-63
2022/01/29 13:32:49;;;;;;;14.18;11.32;;;;;;;;;;5091473;28;20199;-63
2022/01/29 13:35:17;;;;;;;14.20;10.25;;;;;;;;;;5090965;28;20307;-63
2022/01/29 13:37:45;;;;;;;12.73;9.50;;;;;;;;;;5091870;28;20700;-63
2022/01/29 13:40:18;;;;;;;12.27;9.57;;;;;;;;;;5081239;28;20196;-67
2022/01/29 13:43:06;;;;;;;22.67;20.50;;;;;;;;;;5114858;28;20203;-63
2022/01/29 13:45:34;;;;;;;23.70;21.35;;;;;;;;;;5113274;28;20278;-63
2022/01/29 13:48:05;;;;;;;19.38;17.48;;;;;;;;;;5114718;28;20198;-63
2022/01/29 13:50:34;;;;;;;20.40;17.23;;;;;;;;;;5114475;28;20195;-63
2022/01/29 13:53:06;;;;;;;17.73;16.02;;;;;;;;;;5103009;28;20464;-63
2022/01/29 13:55:33;;;;;;;18.60;16.70;;;;;;;;;;5094750;28;20231;-62
2022/01/29 13:58:02;;;;;;;19.05;17.25;;;;;;;;;;5094984;28;20587;-62
2022/01/29 14:00:30;;;;;;;19.15;17.27;;;;;;;;;;5107085;28;20199;-62
2022/01/29 14:02:57;;;;;;;18.17;16.38;;;;;;;;;;5087586;28;20204;-63
2022/01/29 14:05:28;;;;;;;16.90;15.18;;;;;;;;;;5080793;28;20192;-63
2022/01/29 14:08:11;;;;;;;15.90;14.20;;;;;;;;;;5100005;28;20257;-63
2022/01/29 14:10:38;;;;;;;15.43;13.98;;;;;;;;;;5114479;28;20238;-62
2022/01/29 14:13:06;;;;;;;14.32;12.85;;;;;;;;;;5117704;28;20203;-62
2022/01/29 14:15:33;;;;;;;13.93;12.48;;;;;;;;;;5117610;28;20622;-62
2022/01/29 14:18:00;;;;;;;13.73;12.32;;;;;;;;;;5116975;28;20199;-62
2022/01/29 14:20:31;;;;;;;14.70;13.30;;;;;;;;;;5117569;28;20199;-62
2022/01/29 14:22:58;;;;;;;20.65;18.58;;;;;;;;;;5117199;28;20207;-62
2022/01/29 14:25:26;;;;;;;17.73;16.05;;;;;;;;;;5097401;28;20223;-63
2022/01/29 14:27:54;;;;;;;17.60;15.80;;;;;;;;;;5117897;28;20198;-62
2022/01/29 14:30:21;;;;;;;16.17;14.60;;;;;;;;;;5117509;28;20217;-62
2022/01/29 14:32:48;;;;;;;15.93;14.40;;;;;;;;;;5118067;28;20625;-63
2022/01/29 14:35:17;;;;;;;14.43;12.85;;;;;;;;;;5103784;28;20215;-62
2022/01/29 14:37:45;;;;;;;13.82;12.43;;;;;;;;;;5108146;28;20203;-62
2022/01/29 14:40:14;;;;;;;13.82;12.52;;;;;;;;;;5098092;28;20214;-63
2022/01/29 14:42:43;;;;;;;12.80;11.50;;;;;;;;;;5097275;28;20208;-63
2022/01/29 14:45:13;;;;;;;12.52;11.32;;;;;;;;;;5097319;28;20287;-63
2022/01/29 14:47:44;;;;;;;11.48;10.38;;;;;;;;;;5097339;28;20207;-63
2022/01/29 14:50:11;;;;;;;11.63;10.02;;;;;;;;;;5096692;28;20214;-62
2022/01/29 14:52:39;;;;;;;10.88;9.88;;;;;;;;;;5097398;28;20192;-62
2022/01/29 14:55:09;;;;;;;10.00;9.07;;;;;;;;;;5110820;28;20316;-63
2022/01/29 14:57:37;;;;;;;9.98;8.98;;;;;;;;;;5116154;27;20199;-62
2022/01/29 15:00:04;;;;;;;10.88;8.25;;;;;;;;;;5116618;28;20214;-63
2022/01/29 15:02:32;;;;;;;10.80;8.68;;;;;;;;;;5099318;28;20473;-63
2022/01/29 15:05:00;;;;;;;11.40;10.40;;;;;;;;;;5113602;28;20191;-63